Time;durP1;ratioP1;P1;durP2;ratioP2;P2;SDS_P1;SDS_P2;PMS_P1;PMS_P2;Temp;Humidity;BMP_temperature;BMP_pressure;BME280_temperature;BME280_humidity;BME280_pressure;Samples;Min_cycle;Max_cycle;Signal;HPM_P1;HPM_P2
2021/08/24 00:00:23;;;;;;;3.00;1.63;;;21.80;61.50;;;;;;5114854;28;20180;-63
2021/08/24 00:02:48;;;;;;;1.50;1.40;;;21.80;61.60;;;;;;5115273;28;20205;-63
2021/08/24 00:05:21;;;;;;;1.48;1.38;;;21.80;61.50;;;;;;5114318;28;20521;-63
2021/08/24 00:07:47;;;;;;;2.20;1.77;;;21.80;61.60;;;;;;5097580;28;20658;-63
2021/08/24 00:10:12;;;;;;;1.73;1.63;;;21.70;61.40;;;;;;5114483;28;20165;-63
2021/08/24 00:12:38;;;;;;;1.48;1.38;;;21.80;61.50;;;;;;5114605;28;20763;-63
2021/08/24 00:15:04;;;;;;;2.95;1.67;;;21.80;61.70;;;;;;5114723;28;20185;-62
2021/08/24 00:17:30;;;;;;;1.73;1.35;;;21.80;61.50;;;;;;5114003;28;20173;-63
2021/08/24 00:19:55;;;;;;;2.05;1.50;;;21.80;61.60;;;;;;5114697;28;20200;-63
2021/08/24 00:22:21;;;;;;;2.00;1.50;;;21.70;61.40;;;;;;5114195;28;20532;-62
2021/08/24 00:24:47;;;;;;;2.17;1.58;;;21.70;61.40;;;;;;5113979;28;20232;-63
2021/08/24 00:27:12;;;;;;;2.33;1.65;;;21.70;61.40;;;;;;5114473;28;20178;-62
2021/08/24 00:29:38;;;;;;;1.70;1.38;;;21.70;61.40;;;;;;5114315;28;20165;-63
2021/08/24 00:32:03;;;;;;;1.73;1.38;;;21.70;61.30;;;;;;5113824;28;20180;-63
2021/08/24 00:34:29;;;;;;;1.77;1.65;;;21.70;61.30;;;;;;5113968;28;20659;-63
2021/08/24 00:36:54;;;;;;;1.73;1.40;;;21.70;61.30;;;;;;5114043;28;20214;-63
2021/08/24 00:39:20;;;;;;;1.73;1.42;;;21.70;61.20;;;;;;5113593;28;20343;-63
2021/08/24 00:41:45;;;;;;;1.77;1.60;;;21.70;61.10;;;;;;5114300;28;20208;-63
2021/08/24 00:44:11;;;;;;;2.42;1.50;;;21.70;61.30;;;;;;5114329;28;20538;-63
2021/08/24 00:46:38;;;;;;;1.88;1.67;;;21.70;61.50;;;;;;5113565;28;20181;-63
2021/08/24 00:49:10;;;;;;;1.67;1.55;;;21.70;61.40;;;;;;5096015;28;20722;-63
2021/08/24 00:51:37;;;;;;;1.83;1.55;;;21.70;61.30;;;;;;5114093;28;20256;-63
2021/08/24 00:54:09;;;;;;;1.98;1.75;;;21.70;61.30;;;;;;5095468;28;20188;-63
2021/08/24 00:56:35;;;;;;;2.28;1.55;;;21.60;61.20;;;;;;5095666;28;20173;-63
2021/08/24 00:59:01;;;;;;;2.03;1.50;;;21.60;61.20;;;;;;5095637;28;20176;-63
2021/08/24 01:01:27;;;;;;;1.77;1.63;;;21.60;61.30;;;;;;5094950;28;20292;-63
2021/08/24 01:03:52;;;;;;;1.90;1.80;;;21.60;61.20;;;;;;5113964;28;20585;-64
2021/08/24 01:06:40;;;;;;;2.10;1.33;;;21.60;61.30;;;;;;5095996;28;20165;-63
2021/08/24 01:09:27;;;;;;;3.60;1.77;;;21.60;61.30;;;;;;5096090;28;20176;-64
2021/08/24 01:12:07;;;;;;;2.83;1.50;;;21.60;61.20;;;;;;5095688;28;20537;-64
2021/08/24 01:14:49;;;;;;;2.70;1.83;;;21.60;61.20;;;;;;5095123;28;20711;-64
2021/08/24 01:17:20;;;;;;;1.70;1.58;;;21.60;61.20;;;;;;5095729;28;20178;-63
2021/08/24 01:19:50;;;;;;;3.60;1.85;;;21.60;61.20;;;;;;5095362;28;20305;-63
2021/08/24 01:22:34;;;;;;;2.03;1.80;;;21.60;61.20;;;;;;5113092;28;20224;-62
2021/08/24 01:25:13;;;;;;;2.22;1.77;;;21.60;61.30;;;;;;5113525;28;20380;-63
2021/08/24 01:28:02;;;;;;;1.90;1.55;;;21.60;61.30;;;;;;5094970;28;20683;-63
2021/08/24 01:30:37;;;;;;;1.90;1.60;;;21.60;61.30;;;;;;5095105;28;20173;-63
2021/08/24 01:33:15;;;;;;;2.38;1.50;;;21.60;61.20;;;;;;5113681;28;20189;-63
2021/08/24 01:36:13;;;;;;;1.83;1.55;;;21.50;61.00;;;;;;5094273;28;20230;-63
2021/08/24 01:39:03;;;;;;;2.88;2.00;;;21.50;61.10;;;;;;5095084;28;20177;-63
2021/08/24 01:41:48;;;;;;;2.25;1.80;;;21.50;61.10;;;;;;5104433;28;20257;-63
2021/08/24 01:44:16;;;;;;;2.05;1.58;;;21.50;61.10;;;;;;5095207;28;20199;-63
2021/08/24 01:46:45;;;;;;;2.17;1.92;;;21.50;61.10;;;;;;5112363;28;20573;-64
2021/08/24 01:49:12;;;;;;;3.65;2.05;;;21.50;61.10;;;;;;5093890;28;20604;-63
2021/08/24 01:51:45;;;;;;;2.00;1.60;;;21.50;61.00;;;;;;5094687;28;20607;-63
2021/08/24 01:54:14;;;;;;;1.88;1.70;;;21.50;60.90;;;;;;5094913;28;20184;-63
2021/08/24 01:56:39;;;;;;;1.70;1.60;;;21.50;61.00;;;;;;5094068;28;20177;-64
2021/08/24 01:59:17;;;;;;;2.30;1.77;;;21.50;60.90;;;;;;5094749;28;20309;-63
2021/08/24 02:01:51;;;;;;;1.73;1.60;;;21.50;61.80;;;;;;5094472;28;20213;-63
2021/08/24 02:04:33;;;;;;;2.17;1.80;;;21.50;60.80;;;;;;5094127;28;20635;-63
2021/08/24 02:06:58;;;;;;;2.50;1.98;;;21.50;61.00;;;;;;5095505;28;20595;-63
2021/08/24 02:09:33;;;;;;;1.92;1.73;;;21.50;61.10;;;;;;5094239;28;20272;-63
2021/08/24 02:11:58;;;;;;;2.45;1.55;;;21.50;60.90;;;;;;5094245;28;20177;-63
2021/08/24 02:14:24;;;;;;;1.98;1.77;;;21.40;61.00;;;;;;5094258;28;20208;-62
2021/08/24 02:16:49;;;;;;;1.77;1.67;;;21.40;61.00;;;;;;5112129;28;20520;-63
2021/08/24 02:19:20;;;;;;;1.48;1.38;;;21.40;61.10;;;;;;5094472;28;20330;-63
2021/08/24 02:21:56;;;;;;;5.68;2.05;;;21.40;61.00;;;;;;5094292;28;20277;-63
2021/08/24 02:24:25;;;;;;;2.83;1.77;;;21.40;61.10;;;;;;5094201;28;20225;-62
2021/08/24 02:26:50;;;;;;;2.30;2.10;;;21.40;60.90;;;;;;5094618;28;20173;-63
2021/08/24 02:29:16;;;;;;;2.33;2.13;;;21.40;61.00;;;;;;5112625;28;20296;-63
2021/08/24 02:31:58;;;;;;;2.58;1.98;;;21.40;61.00;;;;;;5111555;28;20218;-63
2021/08/24 02:34:31;;;;;;;3.03;1.70;;;21.40;60.80;;;;;;5093993;28;20189;-63
2021/08/24 02:37:17;;;;;;;1.90;1.70;;;21.40;61.00;;;;;;5094124;28;20180;-63
2021/08/24 02:39:47;;;;;;;2.65;2.10;;;21.40;60.90;;;;;;5093286;28;20183;-63
2021/08/24 02:42:33;;;;;;;2.63;1.90;;;21.40;60.90;;;;;;5094071;28;20213;-63
2021/08/24 02:45:11;;;;;;;2.13;1.90;;;21.40;61.00;;;;;;5111645;28;20196;-63
2021/08/24 02:47:37;;;;;;;2.38;1.92;;;21.40;61.00;;;;;;5093849;28;20177;-63
2021/08/24 02:50:07;;;;;;;3.78;1.77;;;21.40;60.90;;;;;;5094186;28;20560;-63
2021/08/24 02:52:33;;;;;;;2.65;2.45;;;21.40;60.90;;;;;;5111043;28;20184;-63
2021/08/24 02:54:59;;;;;;;2.55;1.90;;;21.40;60.90;;;;;;5093727;28;20540;-64
2021/08/24 02:57:24;;;;;;;2.28;2.08;;;21.40;61.00;;;;;;5093664;28;20181;-64
2021/08/24 02:59:50;;;;;;;2.30;1.90;;;21.30;60.80;;;;;;5114409;28;20185;-63
2021/08/24 03:02:15;;;;;;;3.22;2.00;;;21.40;61.00;;;;;;5116163;28;20229;-62
2021/08/24 03:04:41;;;;;;;2.28;2.05;;;21.30;60.80;;;;;;5115919;28;20173;-63
2021/08/24 03:07:29;;;;;;;2.33;1.95;;;21.30;60.80;;;;;;5115598;28;20177;-63
2021/08/24 03:09:57;;;;;;;4.25;2.03;;;21.30;61.00;;;;;;5098086;28;20173;-64
2021/08/24 03:12:32;;;;;;;4.95;1.95;;;21.30;61.10;;;;;;5097952;28;20593;-62
2021/08/24 03:15:05;;;;;;;2.30;2.05;;;21.30;61.10;;;;;;5115541;28;20203;-64
2021/08/24 03:17:39;;;;;;;3.22;2.25;;;21.30;61.10;;;;;;5097574;28;20213;-62
2021/08/24 03:20:06;;;;;;;3.17;2.00;;;21.30;60.80;;;;;;5097343;28;20177;-62
2021/08/24 03:22:31;;;;;;;2.67;1.85;;;21.30;60.90;;;;;;5097561;28;20240;-62
2021/08/24 03:24:58;;;;;;;2.15;1.90;;;21.30;61.10;;;;;;5097688;28;20247;-63
2021/08/24 03:27:23;;;;;;;2.63;2.20;;;21.30;60.90;;;;;;5096611;28;20272;-63
2021/08/24 03:30:01;;;;;;;2.22;2.03;;;21.20;61.00;;;;;;5097653;28;20355;-64
2021/08/24 03:32:26;;;;;;;2.92;2.40;;;21.30;60.90;;;;;;5115363;28;20173;-63
2021/08/24 03:34:52;;;;;;;2.42;2.22;;;21.30;61.10;;;;;;5114925;28;20170;-63
2021/08/24 03:37:17;;;;;;;3.17;2.15;;;21.30;61.20;;;;;;5115633;28;20177;-63
2021/08/24 03:39:43;;;;;;;2.67;2.20;;;21.20;61.20;;;;;;5115387;28;20584;-64
2021/08/24 03:42:08;;;;;;;2.35;2.15;;;21.20;61.00;;;;;;5114969;28;20244;-63
2021/08/24 03:44:34;;;;;;;2.30;2.10;;;21.20;61.10;;;;;;5115106;28;20233;-63
2021/08/24 03:46:59;;;;;;;2.13;1.92;;;21.20;61.00;;;;;;5115448;28;20165;-64
2021/08/24 03:49:25;;;;;;;2.67;2.33;;;21.20;61.10;;;;;;5114308;28;20173;-62
2021/08/24 03:51:50;;;;;;;3.13;1.95;;;21.20;61.00;;;;;;5115232;28;20214;-64
2021/08/24 03:54:16;;;;;;;3.13;2.25;;;21.20;61.00;;;;;;5115425;28;20231;-63
2021/08/24 03:56:41;;;;;;;2.83;2.30;;;21.20;61.10;;;;;;5114321;28;20173;-64
2021/08/24 03:59:08;;;;;;;2.22;2.03;;;21.20;61.00;;;;;;5115230;28;20195;-63
2021/08/24 04:01:33;;;;;;;3.63;2.20;;;21.20;61.10;;;;;;5114726;28;20209;-64
2021/08/24 04:03:59;;;;;;;2.95;2.10;;;21.20;61.20;;;;;;5114300;28;20338;-64
2021/08/24 04:06:25;;;;;;;3.22;2.40;;;21.20;61.10;;;;;;5114605;28;20631;-63
2021/08/24 04:08:50;;;;;;;2.70;2.50;;;21.20;61.00;;;;;;5114850;28;20188;-63
2021/08/24 04:11:16;;;;;;;2.65;2.45;;;21.20;61.00;;;;;;5113183;28;20165;-63
2021/08/24 04:13:41;;;;;;;2.85;2.47;;;21.20;61.00;;;;;;5114567;28;20188;-63
2021/08/24 04:16:08;;;;;;;3.22;2.28;;;21.20;61.30;;;;;;5114889;28;20165;-63
2021/08/24 04:18:33;;;;;;;3.35;2.50;;;21.20;61.10;;;;;;5114034;28;20177;-63
2021/08/24 04:20:59;;;;;;;6.13;2.40;;;21.10;61.10;;;;;;5114414;28;20200;-62
2021/08/24 04:23:25;;;;;;;2.92;2.38;;;21.20;61.20;;;;;;5113362;28;20216;-62
2021/08/24 04:25:50;;;;;;;3.00;2.20;;;21.10;61.10;;;;;;5114702;28;20169;-63
2021/08/24 04:28:16;;;;;;;2.63;2.42;;;21.10;61.20;;;;;;5114414;28;20169;-63
2021/08/24 04:30:41;;;;;;;3.72;2.60;;;21.10;61.10;;;;;;5113384;28;20169;-63
2021/08/24 04:33:07;;;;;;;3.75;2.65;;;21.10;61.10;;;;;;5096199;28;20177;-63
2021/08/24 04:35:33;;;;;;;2.60;2.40;;;21.10;61.30;;;;;;5114105;28;20185;-63
2021/08/24 04:37:58;;;;;;;3.15;2.50;;;21.10;61.20;;;;;;5113790;28;20268;-64
2021/08/24 04:40:27;;;;;;;3.55;2.28;;;21.10;61.30;;;;;;5113878;28;20176;-63
2021/08/24 04:42:52;;;;;;;2.60;2.40;;;21.10;61.20;;;;;;5096618;28;20618;-63
2021/08/24 04:45:18;;;;;;;3.17;2.30;;;21.10;61.20;;;;;;5113696;28;20661;-63
2021/08/24 04:47:44;;;;;;;2.63;2.28;;;21.10;61.30;;;;;;5114026;28;20512;-63
2021/08/24 04:50:10;;;;;;;3.55;2.28;;;21.10;61.20;;;;;;5114309;28;20169;-63
2021/08/24 04:52:35;;;;;;;3.88;2.55;;;21.10;61.30;;;;;;5113396;28;20169;-63
2021/08/24 04:55:01;;;;;;;2.75;2.42;;;21.10;61.30;;;;;;5113730;28;20180;-64
2021/08/24 04:57:26;;;;;;;2.85;2.15;;;21.10;61.30;;;;;;5095612;28;20173;-63
2021/08/24 04:59:52;;;;;;;3.08;2.78;;;21.10;61.30;;;;;;5113509;28;20526;-63
2021/08/24 05:02:19;;;;;;;2.47;2.28;;;21.10;61.20;;;;;;5114041;28;20234;-62
2021/08/24 05:04:44;;;;;;;3.20;2.20;;;21.10;61.40;;;;;;5113867;28;20169;-63
2021/08/24 05:07:10;;;;;;;2.30;2.10;;;21.10;61.40;;;;;;5113421;28;20176;-64
2021/08/24 05:09:35;;;;;;;3.45;2.60;;;21.10;61.20;;;;;;5113757;28;20165;-63
2021/08/24 05:12:01;;;;;;;2.70;2.50;;;21.10;61.30;;;;;;5113856;28;20238;-64
2021/08/24 05:14:26;;;;;;;2.45;2.10;;;21.00;61.20;;;;;;5112828;28;20178;-62
2021/08/24 05:16:56;;;;;;;3.00;2.40;;;21.10;61.40;;;;;;5113829;28;20267;-62
2021/08/24 05:19:22;;;;;;;3.67;2.42;;;21.10;61.30;;;;;;5113217;28;20173;-62
2021/08/24 05:21:47;;;;;;;3.30;2.20;;;21.10;61.30;;;;;;5112787;28;20208;-62
2021/08/24 05:24:13;;;;;;;2.75;2.38;;;21.10;61.30;;;;;;5113497;28;20216;-62
2021/08/24 05:26:38;;;;;;;2.92;2.30;;;21.10;61.20;;;;;;5112760;28;20169;-63
2021/08/24 05:29:04;;;;;;;4.00;2.50;;;21.10;61.40;;;;;;5113425;28;20203;-63
2021/08/24 05:31:29;;;;;;;3.28;2.70;;;21.10;61.30;;;;;;5113035;28;20169;-62
2021/08/24 05:33:55;;;;;;;2.92;2.60;;;21.10;61.40;;;;;;5112580;28;20165;-62
2021/08/24 05:36:20;;;;;;;3.95;2.80;;;21.10;61.30;;;;;;5113064;28;20272;-62
2021/08/24 05:38:46;;;;;;;4.28;2.80;;;21.00;61.30;;;;;;5113365;28;20169;-63
2021/08/24 05:41:11;;;;;;;3.05;2.38;;;21.00;61.30;;;;;;5112670;28;20188;-62
2021/08/24 05:43:37;;;;;;;3.65;2.53;;;21.00;61.20;;;;;;5112890;28;20537;-64
2021/08/24 05:46:07;;;;;;;3.95;2.50;;;21.00;61.20;;;;;;5113089;28;20169;-63
2021/08/24 05:48:33;;;;;;;2.55;2.30;;;21.00;61.10;;;;;;5111847;28;20255;-64
2021/08/24 05:50:59;;;;;;;3.80;2.67;;;21.10;61.20;;;;;;5112903;28;20264;-64
2021/08/24 05:53:24;;;;;;;2.60;2.35;;;21.10;61.10;;;;;;5112468;28;20200;-63
2021/08/24 05:55:50;;;;;;;3.15;2.35;;;21.10;61.20;;;;;;5112093;28;20169;-64
2021/08/24 05:58:15;;;;;;;3.03;2.72;;;21.10;61.20;;;;;;5112891;28;20176;-63
2021/08/24 06:00:41;;;;;;;4.60;2.60;;;21.10;61.10;;;;;;5112485;28;20222;-64
2021/08/24 06:03:06;;;;;;;3.92;2.33;;;21.10;61.20;;;;;;5111715;28;20609;-63
2021/08/24 06:05:36;;;;;;;3.50;2.90;;;21.10;61.20;;;;;;5112300;28;20192;-63
2021/08/24 06:08:01;;;;;;;3.25;2.40;;;21.10;61.20;;;;;;5094271;28;20646;-63
2021/08/24 06:10:27;;;;;;;3.25;2.80;;;21.10;61.20;;;;;;5111487;28;20245;-63
2021/08/24 06:12:52;;;;;;;4.57;2.92;;;21.10;61.20;;;;;;5112533;28;20623;-63
2021/08/24 06:15:18;;;;;;;4.15;2.72;;;21.10;61.20;;;;;;5112529;28;20218;-63
2021/08/24 06:17:46;;;;;;;4.85;3.00;;;21.10;61.10;;;;;;5111481;28;20192;-63
2021/08/24 06:20:11;;;;;;;2.88;2.58;;;21.10;61.10;;;;;;5112674;28;20173;-61
2021/08/24 06:22:37;;;;;;;3.03;2.35;;;21.10;61.10;;;;;;5112258;28;20239;-62
2021/08/24 06:25:03;;;;;;;3.28;2.30;;;21.10;61.20;;;;;;5111565;28;20217;-62
2021/08/24 06:27:29;;;;;;;4.43;2.63;;;21.10;61.20;;;;;;5093818;28;20226;-63
2021/08/24 06:29:54;;;;;;;2.90;2.30;;;21.10;61.30;;;;;;5112110;28;20181;-62
2021/08/24 06:32:32;;;;;;;3.22;2.65;;;21.20;61.30;;;;;;5111674;28;20194;-61
2021/08/24 06:34:57;;;;;;;2.83;2.28;;;21.20;61.30;;;;;;5093871;28;20184;-62
2021/08/24 06:37:23;;;;;;;2.65;2.42;;;21.20;61.30;;;;;;5111375;28;20173;-62
2021/08/24 06:39:49;;;;;;;5.72;2.75;;;21.20;61.40;;;;;;5112249;28;20603;-62
2021/08/24 06:42:14;;;;;;;2.17;2.08;;;21.20;61.60;;;;;;5112202;28;20237;-61
2021/08/24 06:44:39;;;;;;;2.88;2.55;;;21.20;61.70;;;;;;5111193;28;20264;-64
2021/08/24 06:47:05;;;;;;;2.72;2.20;;;21.20;61.70;;;;;;5112409;28;20607;-61
2021/08/24 06:49:30;;;;;;;2.75;2.20;;;21.20;61.80;;;;;;5112288;28;20177;-63
2021/08/24 06:51:57;;;;;;;2.40;2.20;;;21.30;61.90;;;;;;5111669;28;20217;-63
2021/08/24 06:54:23;;;;;;;2.65;2.28;;;21.30;62.00;;;;;;5111889;28;20164;-62
2021/08/24 06:56:48;;;;;;;2.85;2.13;;;21.30;62.10;;;;;;5112105;28;20192;-63
2021/08/24 06:59:14;;;;;;;3.22;2.20;;;21.30;62.40;;;;;;5111214;28;20177;-59
2021/08/24 07:01:39;;;;;;;2.53;2.33;;;21.30;62.50;;;;;;5111533;28;20265;-59
2021/08/24 07:04:05;;;;;;;2.70;2.17;;;21.30;62.50;;;;;;5112137;28;20169;-59
2021/08/24 07:06:30;;;;;;;4.90;3.00;;;21.30;62.50;;;;;;5111129;28;20173;-59
2021/08/24 07:08:56;;;;;;;2.70;2.25;;;21.40;62.40;;;;;;5112054;28;20181;-59
2021/08/24 07:11:26;;;;;;;4.32;2.50;;;21.40;62.40;;;;;;5111732;28;20204;-58
2021/08/24 07:13:55;;;;;;;4.63;2.60;;;21.40;62.50;;;;;;5111073;28;20177;-59
2021/08/24 07:16:24;;;;;;;3.28;2.60;;;21.40;62.80;;;;;;5111552;28;20173;-59
2021/08/24 07:18:56;;;;;;;4.78;2.67;;;21.40;62.70;;;;;;5111796;28;20242;-58
2021/08/24 07:21:22;;;;;;;3.88;2.90;;;21.40;62.80;;;;;;5110802;28;20196;-59
2021/08/24 07:23:48;;;;;;;3.50;2.00;;;21.40;62.80;;;;;;5111685;28;20244;-59
2021/08/24 07:26:14;;;;;;;4.93;2.53;;;21.40;62.80;;;;;;5111059;28;20295;-59
2021/08/24 07:28:39;;;;;;;3.60;2.35;;;21.40;62.80;;;;;;5111710;28;20189;-59
2021/08/24 07:31:05;;;;;;;2.92;2.60;;;21.50;62.90;;;;;;5111916;28;20248;-59
2021/08/24 07:33:30;;;;;;;6.75;2.67;;;21.50;63.30;;;;;;5110801;28;20608;-59
2021/08/24 07:35:56;;;;;;;4.88;2.60;;;21.60;63.40;;;;;;5111688;28;20199;-59
2021/08/24 07:38:21;;;;;;;2.30;2.10;;;21.60;63.30;;;;;;5111409;28;20173;-59
2021/08/24 07:40:47;;;;;;;3.40;2.65;;;21.60;63.40;;;;;;5110847;28;20168;-59
2021/08/24 07:43:13;;;;;;;3.72;2.53;;;21.60;63.80;;;;;;5111477;28;20209;-59
2021/08/24 07:45:39;;;;;;;4.75;2.38;;;21.60;63.50;;;;;;5112087;28;20177;-61
2021/08/24 07:48:04;;;;;;;2.83;2.50;;;21.70;63.40;;;;;;5114461;28;20200;-59
2021/08/24 07:50:30;;;;;;;2.25;2.10;;;21.70;63.40;;;;;;5114766;28;20169;-59
2021/08/24 07:52:55;;;;;;;5.00;2.40;;;21.70;63.40;;;;;;5115100;28;20359;-59
2021/08/24 07:55:21;;;;;;;4.57;2.50;;;21.70;63.30;;;;;;5114130;28;20382;-59
2021/08/24 07:57:46;;;;;;;4.13;2.50;;;21.70;63.40;;;;;;5115355;28;20250;-60
2021/08/24 08:00:12;;;;;;;3.28;2.25;;;21.80;63.40;;;;;;5115336;28;20181;-60
2021/08/24 08:02:38;;;;;;;2.40;2.20;;;21.80;63.40;;;;;;5114051;28;20272;-59
2021/08/24 08:05:04;;;;;;;2.88;2.25;;;21.80;63.30;;;;;;5115173;28;20177;-60
2021/08/24 08:07:29;;;;;;;3.55;2.25;;;21.90;63.40;;;;;;5116519;27;20195;-58
2021/08/24 08:09:55;;;;;;;3.05;2.22;;;21.80;63.30;;;;;;5122169;27;20172;-59
2021/08/24 08:12:20;;;;;;;2.33;2.13;;;21.80;63.30;;;;;;5124519;27;20176;-60
2021/08/24 08:14:46;;;;;;;2.58;2.10;;;21.80;63.40;;;;;;5114953;28;20256;-60
2021/08/24 08:17:12;;;;;;;3.22;2.13;;;21.80;63.40;;;;;;5129999;27;20202;-60
2021/08/24 08:19:38;;;;;;;2.40;2.17;;;21.90;63.50;;;;;;5135441;27;20587;-60
2021/08/24 08:22:04;;;;;;;3.15;2.05;;;21.80;63.50;;;;;;5135532;27;20701;-61
2021/08/24 08:24:30;;;;;;;3.85;2.65;;;21.90;63.50;;;;;;5128707;27;20228;-59
2021/08/24 08:26:55;;;;;;;2.88;2.50;;;21.90;63.60;;;;;;5130623;27;20176;-58
2021/08/24 08:29:21;;;;;;;4.45;2.17;;;21.90;63.50;;;;;;5134767;27;20169;-59
2021/08/24 08:31:47;;;;;;;3.00;2.30;;;21.90;63.60;;;;;;5134497;27;20252;-59
2021/08/24 08:34:13;;;;;;;4.78;2.80;;;21.90;63.50;;;;;;5116614;27;20172;-59
2021/08/24 08:36:38;;;;;;;3.65;2.67;;;21.90;63.50;;;;;;5133955;27;20241;-58
2021/08/24 08:39:04;;;;;;;2.88;2.53;;;21.90;63.50;;;;;;5134974;27;20204;-59
2021/08/24 08:42:00;;;;;;;2.72;2.10;;;21.90;63.50;;;;;;5129815;27;20184;-59
2021/08/24 08:44:49;;;;;;;3.08;2.28;;;22.00;63.60;;;;;;5113389;28;20169;-59
2021/08/24 08:47:36;;;;;;;2.50;2.30;;;22.00;63.50;;;;;;5114319;28;20180;-59
2021/08/24 08:50:30;;;;;;;2.53;2.30;;;22.00;63.60;;;;;;5114321;28;20173;-59
2021/08/24 08:53:16;;;;;;;3.08;2.58;;;22.00;63.50;;;;;;5094957;28;20619;-59
2021/08/24 08:56:16;;;;;;;3.83;2.30;;;22.10;63.50;;;;;;5097195;28;20173;-59
2021/08/24 08:59:26;;;;;;;2.42;2.22;;;22.10;63.50;;;;;;5097568;28;20237;-59
2021/08/24 09:02:30;;;;;;;3.45;2.15;;;22.10;63.50;;;;;;5110532;28;20212;-59
2021/08/24 09:04:55;;;;;;;2.90;2.10;;;22.00;63.60;;;;;;5113161;28;20172;-59
2021/08/24 09:07:48;;;;;;;2.50;2.30;;;22.00;63.80;;;;;;5095412;28;20524;-59
2021/08/24 09:10:19;;;;;;;2.50;2.30;;;22.00;63.90;;;;;;5106941;28;20181;-59
2021/08/24 09:12:48;;;;;;;2.10;1.90;;;22.00;64.00;;;;;;5112858;28;20185;-59
2021/08/24 09:15:17;;;;;;;19.90;2.83;;;22.10;63.80;;;;;;5114802;27;20173;-58
2021/08/24 09:17:42;;;;;;;3.35;2.15;;;22.10;63.70;;;;;;5098730;27;20302;-59
2021/08/24 09:20:27;;;;;;;2.25;2.05;;;22.20;63.60;;;;;;5114939;27;20628;-59
2021/08/24 09:22:52;;;;;;;2.40;2.20;;;22.20;63.40;;;;;;5098803;27;20693;-59
2021/08/24 09:25:22;;;;;;;3.10;2.85;;;22.20;63.40;;;;;;5133694;27;20220;-59
2021/08/24 09:28:00;;;;;;;3.70;2.40;;;22.30;63.30;;;;;;5115267;27;20176;-59
2021/08/24 09:30:26;;;;;;;2.95;1.80;;;22.30;63.30;;;;;;5133700;27;20269;-59
2021/08/24 09:32:55;;;;;;;2.25;2.05;;;22.30;63.40;;;;;;5132491;27;20208;-61
2021/08/24 09:35:31;;;;;;;4.20;2.38;;;22.30;63.50;;;;;;5115551;27;20169;-61
2021/08/24 09:38:00;;;;;;;2.58;2.15;;;22.20;63.50;;;;;;5116102;27;20172;-62
2021/08/24 09:40:49;;;;;;;3.88;2.13;;;22.30;63.40;;;;;;5132493;27;20657;-61
2021/08/24 09:43:19;;;;;;;4.65;2.40;;;22.40;63.40;;;;;;5133571;27;20644;-60
2021/08/24 09:45:44;;;;;;;2.33;2.13;;;22.30;63.40;;;;;;5133607;27;20177;-60
2021/08/24 09:48:10;;;;;;;3.10;2.30;;;22.30;63.50;;;;;;5132494;27;20180;-60
2021/08/24 09:50:42;;;;;;;2.40;2.20;;;22.30;63.40;;;;;;5114992;27;20175;-60
2021/08/24 09:53:24;;;;;;;2.17;1.98;;;22.40;63.40;;;;;;5133469;27;20630;-60
2021/08/24 09:55:49;;;;;;;3.47;2.10;;;22.30;63.40;;;;;;5116062;27;20213;-60
2021/08/24 09:58:28;;;;;;;2.42;2.22;;;22.30;63.50;;;;;;5133270;27;20165;-60
2021/08/24 10:01:03;;;;;;;2.35;2.15;;;22.40;63.50;;;;;;5115139;27;20259;-60
2021/08/24 10:03:39;;;;;;;2.75;2.20;;;22.40;63.30;;;;;;5133068;27;20203;-59
2021/08/24 10:06:06;;;;;;;2.50;2.30;;;22.50;63.20;;;;;;5133185;27;20176;-60
2021/08/24 10:08:34;;;;;;;2.58;2.38;;;22.50;63.10;;;;;;5131326;27;20713;-59
2021/08/24 10:11:06;;;;;;;1.63;1.52;;;22.50;63.10;;;;;;5133115;27;20243;-60
2021/08/24 10:13:36;;;;;;;2.10;2.00;;;22.60;63.00;;;;;;5133033;27;20218;-60
2021/08/24 10:16:29;;;;;;;2.50;2.08;;;22.60;63.00;;;;;;5124492;27;20533;-60
2021/08/24 10:19:11;;;;;;;2.88;1.90;;;22.60;63.00;;;;;;5090635;28;20659;-60
2021/08/24 10:21:45;;;;;;;3.03;2.15;;;22.60;62.90;;;;;;5093942;28;20240;-59
2021/08/24 10:24:13;;;;;;;2.10;1.75;;;22.60;62.90;;;;;;5077348;28;20694;-59
2021/08/24 10:26:38;;;;;;;2.38;2.10;;;22.70;62.90;;;;;;5077197;28;20177;-59
2021/08/24 10:29:09;;;;;;;2.58;2.08;;;22.70;62.80;;;;;;5093761;28;20696;-59
2021/08/24 10:31:40;;;;;;;1.98;1.73;;;22.70;62.70;;;;;;5094294;28;20173;-60
2021/08/24 10:34:27;;;;;;;3.10;2.10;;;22.80;62.80;;;;;;5094076;28;20173;-60
2021/08/24 10:36:53;;;;;;;2.17;1.98;;;22.80;62.80;;;;;;5111573;28;20483;-59
2021/08/24 10:39:22;;;;;;;2.55;2.35;;;22.80;62.70;;;;;;5093907;28;20580;-60
2021/08/24 10:41:49;;;;;;;2.78;1.90;;;22.80;62.60;;;;;;5112377;28;20169;-59
2021/08/24 10:44:22;;;;;;;2.22;2.03;;;22.80;62.70;;;;;;5111508;28;20644;-60
2021/08/24 10:46:55;;;;;;;3.78;1.88;;;22.80;62.60;;;;;;5112572;28;20229;-60
2021/08/24 10:49:20;;;;;;;2.33;2.13;;;22.80;62.60;;;;;;5093665;28;20173;-61
2021/08/24 10:52:00;;;;;;;1.90;1.80;;;22.80;62.50;;;;;;5111666;28;20200;-59
2021/08/24 10:54:37;;;;;;;2.08;1.92;;;22.80;62.50;;;;;;5094169;28;20644;-61
2021/08/24 10:57:15;;;;;;;2.13;1.92;;;22.80;62.40;;;;;;5112416;28;20568;-61
2021/08/24 10:59:52;;;;;;;2.10;1.90;;;22.90;62.50;;;;;;5111954;28;20264;-61
2021/08/24 11:02:43;;;;;;;2.13;1.73;;;22.90;62.40;;;;;;5094477;28;20300;-61
2021/08/24 11:05:14;;;;;;;1.92;1.67;;;22.90;62.40;;;;;;5092968;28;20173;-61
2021/08/24 11:08:01;;;;;;;2.10;1.90;;;22.90;62.40;;;;;;5111894;28;20268;-61
2021/08/24 11:10:42;;;;;;;2.92;2.30;;;22.90;62.40;;;;;;5093261;28;20204;-61
2021/08/24 11:13:12;;;;;;;2.10;1.77;;;22.90;62.30;;;;;;5077894;28;20181;-60
2021/08/24 11:16:02;;;;;;;2.03;1.90;;;22.90;62.20;;;;;;5116326;28;20165;-61
2021/08/24 11:18:41;;;;;;;1.95;1.83;;;22.90;62.20;;;;;;5113188;28;20192;-60
2021/08/24 11:21:30;;;;;;;2.25;2.08;;;22.90;62.10;;;;;;5117620;27;20535;-60
2021/08/24 11:23:59;;;;;;;1.88;1.73;;;22.90;62.00;;;;;;5118531;27;20234;-60
2021/08/24 11:26:39;;;;;;;2.97;1.75;;;22.90;62.00;;;;;;5135580;27;20263;-60
2021/08/24 11:29:28;;;;;;;2.95;2.20;;;23.00;61.90;;;;;;5102516;27;20164;-61
2021/08/24 11:32:12;;;;;;;2.45;1.85;;;23.00;61.60;;;;;;5120658;27;20201;-61
2021/08/24 11:34:41;;;;;;;1.98;1.83;;;23.00;61.50;;;;;;5116711;27;20176;-61
2021/08/24 11:37:33;;;;;;;2.40;2.20;;;23.10;61.50;;;;;;5117614;27;20180;-61
2021/08/24 11:40:01;;;;;;;2.60;2.03;;;23.10;61.30;;;;;;5102882;27;20172;-60
2021/08/24 11:42:31;;;;;;;2.17;1.92;;;23.10;61.30;;;;;;5100373;27;20283;-61
2021/08/24 11:44:57;;;;;;;2.33;2.13;;;23.10;61.30;;;;;;5136207;27;20165;-62
2021/08/24 11:47:43;;;;;;;2.30;2.10;;;23.20;61.10;;;;;;5129885;27;20165;-61
2021/08/24 11:50:15;;;;;;;1.98;1.83;;;23.20;61.00;;;;;;5097169;28;20172;-61
2021/08/24 11:53:03;;;;;;;2.08;1.88;;;23.10;61.00;;;;;;5080607;28;20185;-61
2021/08/24 11:55:33;;;;;;;2.08;1.92;;;23.20;60.80;;;;;;5096096;28;20184;-61
2021/08/24 11:58:09;;;;;;;2.20;1.95;;;23.20;60.70;;;;;;5097061;28;20234;-61
2021/08/24 12:00:35;;;;;;;4.70;2.05;;;23.20;60.70;;;;;;5095761;28;20252;-66
2021/08/24 12:03:06;;;;;;;4.22;2.10;;;23.20;61.10;;;;;;5097032;28;20300;-66
2021/08/24 12:05:35;;;;;;;2.38;1.98;;;23.20;60.70;;;;;;5096969;28;20173;-65
2021/08/24 12:08:03;;;;;;;2.72;2.22;;;23.30;60.70;;;;;;5079622;28;20233;-65
2021/08/24 12:10:51;;;;;;;2.10;1.95;;;23.30;60.70;;;;;;5096242;28;20169;-66
2021/08/24 12:13:31;;;;;;;2.28;1.85;;;23.30;60.60;;;;;;5114855;28;20508;-64
2021/08/24 12:16:16;;;;;;;2.00;1.88;;;23.30;61.50;;;;;;5114130;28;20169;-61
2021/08/24 12:18:42;;;;;;;1.95;1.73;;;23.30;60.60;;;;;;5080572;28;20179;-60
2021/08/24 12:21:39;;;;;;;2.13;1.92;;;23.30;60.80;;;;;;5114796;28;20280;-60
2021/08/24 12:24:35;;;;;;;3.67;2.00;;;23.30;60.70;;;;;;5098016;28;20296;-60
2021/08/24 12:27:00;;;;;;;2.45;2.20;;;23.40;60.20;;;;;;5114866;28;20211;-60
2021/08/24 12:29:32;;;;;;;2.60;2.20;;;23.40;60.20;;;;;;5113540;28;20212;-59
2021/08/24 12:31:58;;;;;;;2.60;2.40;;;23.40;60.70;;;;;;5113983;28;20265;-60
2021/08/24 12:34:36;;;;;;;2.53;2.33;;;23.50;59.70;;;;;;5114129;28;20654;-60
2021/08/24 12:37:26;;;;;;;2.22;2.03;;;23.50;59.40;;;;;;5113930;28;20238;-61
2021/08/24 12:39:55;;;;;;;2.65;2.00;;;23.60;59.40;;;;;;5113870;28;20184;-60
2021/08/24 12:42:58;;;;;;;3.63;2.10;;;23.60;59.30;;;;;;5114061;28;20539;-59
2021/08/24 12:45:25;;;;;;;4.22;2.08;;;23.60;59.20;;;;;;5113369;28;20176;-59
2021/08/24 12:48:12;;;;;;;2.55;2.05;;;23.70;59.10;;;;;;5114092;28;20198;-60
2021/08/24 12:50:38;;;;;;;2.83;2.20;;;23.70;59.00;;;;;;5113102;28;20184;-59
2021/08/24 12:53:38;;;;;;;8.90;2.80;;;23.70;58.90;;;;;;5114198;28;20173;-60
2021/08/24 12:56:03;;;;;;;4.40;2.17;;;23.80;58.80;;;;;;5091123;28;20189;-60
2021/08/24 12:58:41;;;;;;;3.58;2.30;;;23.70;58.90;;;;;;5077817;28;20177;-60
2021/08/24 13:01:10;;;;;;;6.47;2.47;;;23.70;58.70;;;;;;5096944;28;20169;-60
2021/08/24 13:03:36;;;;;;;2.28;2.08;;;23.70;58.60;;;;;;5113311;28;20644;-60
2021/08/24 13:06:30;;;;;;;3.53;2.15;;;23.70;58.50;;;;;;5094706;28;20620;-59